Bavaria

Go HERE for most recent data if this page is not up to date.

Jump to table bottom
Date Time Temp F RH % AVG Wind Max Wind Wind Dir 24 Snow Depth
*01/18/20 14 16.8 60 6 15 SW - 212 1.4 151.3
*01/18/20 13 13.7 63 5 12 W - 271 1.2 151.3
*01/18/20 12 14.6 59 7 14 SW - 232 1.3 151.3
*01/18/20 11 11.1 65 9 15 W - 286 1.4 151.3
*01/18/20 10 8.9 72 11 17 W - 252 1.6 62.1
*01/18/20 09 8.1 72 12 19 W - 260 1.5 61.4
*01/18/20 08 6.1 78 11 17 W - 254 1.6 -10.0
*01/18/20 07 5.3 78 13 21 W - 250 1.6 -9.7
*01/18/20 06 5.2 75 12 19 W - 254 1.4 -9.8
*01/18/20 05 5.0 70 9 17 W - 263 1.4 -9.7
*01/18/20 04 4.6 73 11 24 SW - 204 1.4 -9.6
*01/18/20 03 4.4 72 15 24 W - 263 1.3 61.0
*01/18/20 02 4.2 71 15 21 SW - 239 1.2 -9.6
*01/18/20 01 4.3 70 16 24 SW - 237 1.1 64.1
*01/18/20 00 4.6 69 16 25 W - 268 0.9 64.5
*01/17/20 23 4.5 72 17 24 SW - 207 0.7 62.0
*01/17/20 22 4.3 72 13 22 SW - 235 0.6 62.5
*01/17/20 21 4.2 70 14 22 W - 265 1.1 62.5
*01/17/20 20 3.7 64 13 20 SW - 235 0.7 -9.1
*01/17/20 19 2.4 71 13 18 SW - 245 0.7 -9.1
*01/17/20 18 3.0 70 13 19 W - 282 0.5 -9.2
*01/17/20 17 4.4 70 10 17 W - 263 0.9 -9.7
*01/17/20 16 6.5 68 14 20 W - 281 0.8 65.0
*01/17/20 15 5.5 68 16 24 W - 257 7.3 65.7
*01/17/20 14 6.5 74 16 25 W - 262 7.1 66.2
*01/17/20 13 6.7 82 12 21 W - 261 36.6 151.3
*01/17/20 12 11.0 82 9 19 SE - 143 7.1 64.6
*01/17/20 11 9.6 84 13 22 SE - 157 5.8 63.4
*01/17/20 10 10.2 85 14 24 NW - 295 5.0 151.3
*01/17/20 09 14.6 87 13 19 SW - 247 4.0 61.6
*01/17/20 08 14.4 87 12 22 W - 270 2.6 151.3
*01/17/20 07 16.3 88 11 24 SW - 239 0.1 151.3
*01/17/20 06 16.7 88 15 25 SW - 242 0.0 151.3
*01/17/20 05 18.0 82 11 20 SW - 231 0.1 58.5
*01/17/20 04 19.3 71 12 23 SW - 203 0.1 58.0
*01/17/20 03 20.4 65 10 28 S - 173 0.1 58.1
*01/17/20 02 20.7 65 7 25 SW - 230 0.2 58.3
*01/17/20 01 17.7 86 6 18 E - 105 0.1 58.2
*01/17/20 00 19.6 73 7 17 SE - 121 0.2 58.2
.